Time;durP1;ratioP1;P1;durP2;ratioP2;P2;SDS_P1;SDS_P2;PMS_P1;PMS_P2;Temp;Humidity;BMP_temperature;BMP_pressure;BME280_temperature;BME280_humidity;BME280_pressure;Samples;Min_cycle;Max_cycle;Signal;HPM_P1;HPM_P2
2021/11/12 00:02:18;;;;;;;40.53;13.05;;;;;;;3.37;100.00;99809.44;4957221;28;20054;-69
2021/11/12 00:14:24;;;;;;;22.33;10.30;;;;;;;3.52;100.00;99787.75;4950805;28;20138;-68
2021/11/12 00:17:10;;;;;;;21.40;9.65;;;;;;;3.38;100.00;99776.25;4977936;28;20156;-67
2021/11/12 00:19:57;;;;;;;22.48;10.38;;;;;;;3.39;100.00;99778.00;4950745;28;20062;-67
2021/11/12 00:22:41;;;;;;;21.17;10.55;;;;;;;3.37;100.00;99761.41;4976238;28;20146;-69
2021/11/12 00:25:26;;;;;;;23.80;10.63;;;;;;;3.36;100.00;99757.91;4957122;28;20146;-68
2021/11/12 00:28:12;;;;;;;20.30;9.73;;;;;;;3.43;100.00;99764.06;4977201;28;20524;-68
2021/11/12 00:37:37;;;;;;;19.45;9.63;;;;;;;3.55;100.00;99758.91;4883448;29;20076;-69
2021/11/12 00:40:26;;;;;;;20.47;9.13;;;;;;;3.64;100.00;99751.13;4888656;29;20148;-68
2021/11/12 00:43:29;;;;;;;20.92;9.02;;;;;;;3.61;100.00;99738.00;4888541;29;20509;-67
2021/11/12 00:46:50;;;;;;;19.30;9.57;;;;;;;3.78;100.00;99739.88;4889343;29;20161;-69
2021/11/12 00:49:29;;;;;;;19.23;9.27;;;;;;;3.44;100.00;99703.78;4888330;29;20099;-68
2021/11/12 00:52:26;;;;;;;28.65;9.75;;;;;;;3.50;100.00;99716.06;4864692;29;20046;-67
2021/11/12 00:55:11;;;;;;;20.38;9.70;;;;;;;3.47;100.00;99701.22;4888225;29;20528;-67
2021/11/12 00:57:58;;;;;;;21.70;9.40;;;;;;;3.35;100.00;99702.84;4889589;29;20075;-66
2021/11/12 01:00:44;;;;;;;21.40;9.75;;;;;;;3.26;100.00;99681.84;4889543;29;20056;-68
2021/11/12 01:03:29;;;;;;;21.38;9.93;;;;;;;3.27;100.00;99676.59;4888460;29;20055;-66
2021/11/12 01:06:14;;;;;;;25.85;10.52;;;;;;;3.44;100.00;99677.59;4890616;29;20059;-66
2021/11/12 01:08:59;;;;;;;18.38;9.15;;;;;;;3.33;100.00;99666.16;4887573;29;20068;-67
2021/11/12 01:11:45;;;;;;;;;;;;;;;3.37;100.00;99653.97;4963360;28;20479;-70
2021/11/12 01:14:29;;;;;;;;;;;;;;;3.36;100.00;99655.69;4946937;28;19984;-67
2021/11/12 01:17:14;;;;;;;17.20;8.80;;;;;;;3.42;100.00;99645.28;4936763;28;19929;-68
2021/11/12 01:19:59;;;;;;;19.13;9.10;;;;;;;3.49;100.00;99644.41;4968237;28;20085;-68
2021/11/12 01:22:46;;;;;;;16.83;8.70;;;;;;;3.39;100.00;99632.16;4936326;28;20139;-67
2021/11/12 01:25:31;;;;;;;16.63;8.90;;;;;;;3.34;100.00;99620.78;4934880;29;20077;-67
2021/11/12 01:28:17;;;;;;;17.45;8.55;;;;;;;3.40;100.00;99625.16;4941578;28;20520;-66
2021/11/12 01:31:02;;;;;;;15.15;8.27;;;;;;;3.27;100.00;99628.56;4949902;28;20114;-67
2021/11/12 01:33:46;;;;;;;;;;;;;;;3.28;100.00;99615.47;4957306;28;20117;-67
2021/11/12 01:36:37;;;;;;;18.33;8.48;;;;;;;3.27;100.00;99618.97;4969033;28;19928;-66
2021/11/12 01:39:22;;;;;;;16.33;8.65;;;;;;;3.24;100.00;99628.56;4940983;28;20053;-68
2021/11/12 01:42:07;;;;;;;18.50;9.20;;;;;;;3.20;100.00;99597.94;4965152;28;20113;-66
2021/11/12 01:45:08;;;;;;;17.85;8.30;;;;;;;3.22;100.00;99615.44;4952178;28;20058;-67
2021/11/12 01:48:19;;;;;;;17.05;9.82;;;;;;;3.22;100.00;99601.47;4956513;28;20085;-67
2021/11/12 01:56:48;;;;;;;20.08;8.32;;;;;;;3.23;100.00;99591.00;4941030;28;20142;-67
2021/11/12 01:59:32;;;;;;;21.05;9.80;;;;;;;3.17;100.00;99583.09;4963625;28;20125;-66
2021/11/12 02:02:17;;;;;;;17.42;9.10;;;;;;;3.21;100.00;99565.66;4953180;28;20058;-66
2021/11/12 02:05:03;;;;;;;19.77;8.93;;;;;;;3.25;100.00;99570.06;4950086;28;20534;-66
2021/11/12 02:07:48;;;;;;;20.63;9.75;;;;;;;3.25;100.00;99572.69;4964095;28;20053;-67
2021/11/12 02:10:33;;;;;;;18.17;9.30;;;;;;;3.18;100.00;99570.88;4977502;28;20053;-67
2021/11/12 02:13:20;;;;;;;16.55;8.60;;;;;;;3.03;100.00;99562.91;4949388;28;20101;-67
2021/11/12 02:16:06;;;;;;;18.02;9.88;;;;;;;3.07;100.00;99533.25;4947182;28;20542;-67
2021/11/12 02:18:51;;;;;;;19.60;9.13;;;;;;;3.06;100.00;99521.94;4962538;28;20165;-66
2021/11/12 02:22:03;;;;;;;15.30;8.63;;;;;;;3.14;100.00;99527.19;4948534;28;20054;-69
2021/11/12 02:24:47;;;;;;;20.17;9.50;;;;;;;3.13;100.00;99543.78;4947371;28;20143;-67
2021/11/12 02:27:49;;;;;;;17.90;7.80;;;;;;;3.15;100.00;99540.31;4947914;28;20102;-67
2021/11/12 02:30:34;;;;;;;16.38;9.13;;;;;;;3.14;100.00;99529.81;4961886;28;20152;-66
2021/11/12 02:33:23;;;;;;;20.17;8.82;;;;;;;3.11;100.00;99517.59;4960487;28;20073;-67
2021/11/12 02:36:14;;;;;;;19.55;9.60;;;;;;;3.18;100.00;99513.25;4962658;28;20159;-66
2021/11/12 02:39:00;;;;;;;31.67;9.70;;;;;;;3.10;100.00;99505.38;4952948;28;20181;-68
2021/11/12 02:41:44;;;;;;;17.95;8.35;;;;;;;3.09;100.00;99487.88;4946243;28;20135;-67
2021/11/12 02:44:33;;;;;;;20.80;8.93;;;;;;;3.19;100.00;99473.97;4964449;28;20537;-68
2021/11/12 02:47:20;;;;;;;16.17;9.32;;;;;;;3.21;100.00;99469.59;4946189;28;20049;-68
2021/11/12 02:50:06;;;;;;;17.35;8.10;;;;;;;3.06;100.00;99477.41;4936992;28;20097;-67
2021/11/12 02:52:57;;;;;;;21.98;9.10;;;;;;;3.03;100.00;99463.41;4951620;28;20058;-66
2021/11/12 02:55:44;;;;;;;21.33;8.52;;;;;;;3.01;100.00;99475.63;4946800;28;20057;-67
2021/11/12 02:58:30;;;;;;;22.88;9.85;;;;;;;3.14;100.00;99464.34;4965840;28;20054;-68
2021/11/12 03:01:15;;;;;;;17.52;10.20;;;;;;;3.02;100.00;99466.91;4940582;28;20053;-68
2021/11/12 03:04:11;;;;;;;21.35;10.45;;;;;;;2.86;100.00;99465.06;4949008;28;20065;-66
2021/11/12 03:06:57;;;;;;;19.95;9.52;;;;;;;2.97;100.00;99445.91;4952366;28;20135;-66
2021/11/12 03:09:43;;;;;;;18.35;9.52;;;;;;;2.98;100.00;99437.22;4939360;28;20054;-66
2021/11/12 03:12:28;;;;;;;20.27;9.85;;;;;;;2.90;100.00;99444.16;4958033;28;20140;-67
2021/11/12 03:15:13;;;;;;;20.52;10.55;;;;;;;2.98;100.00;99439.84;4962162;28;20102;-66
2021/11/12 03:17:59;;;;;;;22.45;10.27;;;;;;;2.94;100.00;99430.22;4937373;28;20133;-66
2021/11/12 03:20:45;;;;;;;20.67;9.80;;;;;;;2.80;100.00;99426.66;4949039;28;20231;-66
2021/11/12 03:23:43;;;;;;;19.58;10.80;;;;;;;2.73;100.00;99411.75;4950589;28;20050;-70
2021/11/12 04:03:11;;;;;;;21.33;9.57;;;;;;;2.08;100.00;99336.38;4909321;29;20063;-72
2021/11/12 04:18:19;;;;;;;29.13;11.93;;;;;;;2.29;100.00;99295.53;4939038;28;20054;-68
2021/11/12 04:30:46;;;;;;;21.30;10.30;;;;;;;2.47;100.00;99286.91;4944192;28;20077;-67
2021/11/12 04:30:55;;;;;;;20.20;10.18;;;;;;;2.40;100.00;99285.13;4952299;28;20084;-68
2021/11/12 05:13:33;;;;;;;20.15;9.75;;;;;;;2.45;100.00;99176.16;4960052;28;20058;-67
2021/11/12 05:49:59;;;;;;;25.60;10.85;;;;;;;2.35;100.00;99119.47;4894454;29;20102;-64
2021/11/12 05:55:47;;;;;;;31.55;12.05;;;;;;;2.23;100.00;99117.69;4908821;29;20055;-67
2021/11/12 05:58:32;;;;;;;25.05;12.18;;;;;;;2.30;100.00;99108.97;4907190;29;20093;-71
2021/11/12 06:01:16;;;;;;;31.10;12.88;;;;;;;2.16;100.00;99112.44;4907940;29;20091;-66
2021/11/12 06:04:02;;;;;;;28.05;12.73;;;;;;;2.08;100.00;99088.91;4905638;29;20062;-66
2021/11/12 06:06:48;;;;;;;30.58;14.23;;;;;;;2.17;100.00;99085.44;4909001;29;20119;-67
2021/11/12 06:09:33;;;;;;;33.50;14.57;;;;;;;2.12;100.00;99081.91;4893167;29;20095;-66
2021/11/12 06:12:18;;;;;;;26.65;13.00;;;;;;;2.09;100.00;99071.47;4907927;29;20047;-67
2021/11/12 06:15:03;;;;;;;29.13;13.68;;;;;;;2.02;100.00;99067.94;4908077;29;20596;-66
2021/11/12 06:17:48;;;;;;;31.40;13.85;;;;;;;2.01;100.00;99060.97;4893887;29;20156;-71
2021/11/12 06:20:34;;;;;;;25.98;12.15;;;;;;;1.92;100.00;99047.03;4940349;28;20049;-68
2021/11/12 06:23:19;;;;;;;21.00;9.77;;;;;;;1.94;100.00;99050.53;4945872;28;20054;-67
2021/11/12 06:26:04;;;;;;;26.80;12.60;;;;;;;2.08;100.00;99059.25;4964537;28;20062;-69
2021/11/12 06:28:50;;;;;;;26.38;12.20;;;;;;;2.03;100.00;99068.84;4963076;28;20112;-65
2021/11/12 06:31:35;;;;;;;26.00;12.30;;;;;;;2.02;100.00;99060.09;4967481;28;20061;-66
2021/11/12 06:34:19;;;;;;;28.92;12.55;;;;;;;1.99;100.00;99059.25;4966493;28;20057;-67
2021/11/12 06:37:05;;;;;;;30.30;13.25;;;;;;;1.99;100.00;99038.31;4933279;29;20574;-73
2021/11/12 06:39:50;;;;;;;29.10;11.98;;;;;;;2.00;100.00;99037.44;4955165;28;20166;-64
2021/11/12 06:42:38;;;;;;;24.02;11.77;;;;;;;1.93;100.00;99031.34;4956601;28;20105;-66
2021/11/12 06:51:14;;;;;;;31.33;13.82;;;;;;;2.10;100.00;99039.22;4965828;28;20120;-66
2021/11/12 06:53:59;;;;;;;22.48;11.18;;;;;;;2.00;100.00;99027.00;4943660;29;20553;-65
2021/11/12 06:56:43;;;;;;;26.98;13.73;;;;;;;2.05;100.00;99033.97;4934108;29;20054;-66
2021/11/12 06:59:29;;;;;;;27.15;13.30;;;;;;;2.18;100.00;99027.88;4948213;28;20077;-73
2021/11/12 07:02:17;;;;;;;31.35;14.27;;;;;;;2.28;100.00;99021.81;4950970;28;20494;-69
2021/11/12 07:05:02;;;;;;;23.98;12.68;;;;;;;2.42;100.00;99030.53;4952269;28;20077;-66
2021/11/12 07:07:48;;;;;;;24.10;12.88;;;;;;;2.33;100.00;99032.28;4972779;28;20053;-69
2021/11/12 07:10:32;;;;;;;;;;;;;;;2.36;100.00;99021.81;4968652;28;20117;-66
2021/11/12 07:13:17;;;;;;;31.23;13.07;;;;;;;2.36;100.00;99011.34;4971374;28;19977;-66
2021/11/12 07:16:03;;;;;;;24.55;12.40;;;;;;;2.37;100.00;99006.13;4952209;28;20083;-65
2021/11/12 07:18:48;;;;;;;27.60;12.98;;;;;;;2.41;100.00;99014.84;4945834;28;20145;-69
2021/11/12 07:21:33;;;;;;;26.92;12.20;;;;;;;2.42;100.00;99004.38;4962359;28;20049;-64
2021/11/12 07:24:19;;;;;;;30.60;12.65;;;;;;;2.41;100.00;98999.16;4970536;28;20057;-68
2021/11/12 07:27:06;;;;;;;27.20;12.10;;;;;;;2.58;100.00;99002.63;4960247;28;20057;-69
2021/11/12 07:29:51;;;;;;;25.13;12.38;;;;;;;2.63;100.00;98990.41;4961080;28;20145;-65
2021/11/12 07:32:35;;;;;;;28.92;13.40;;;;;;;2.68;100.00;98984.28;4952992;28;20832;-66
2021/11/12 07:35:26;;;;;;;25.90;11.77;;;;;;;2.70;100.00;98977.34;4973269;28;20176;-68
2021/11/12 07:38:16;;;;;;;27.55;12.25;;;;;;;2.89;100.00;98972.94;4946023;28;20050;-67
2021/11/12 07:47:10;;;;;;;22.17;9.93;;;;;;;2.59;100.00;98946.81;4953921;28;20085;-66
2021/11/12 07:49:59;;;;;;;21.45;11.00;;;;;;;2.66;100.00;98956.38;4961212;28;20436;-70
2021/11/12 07:52:44;;;;;;;20.65;10.80;;;;;;;2.51;100.00;98940.72;4956614;28;20082;-64
2021/11/12 07:55:29;;;;;;;19.13;9.98;;;;;;;2.47;100.00;98932.00;4968459;28;20062;-68
2021/11/12 07:58:14;;;;;;;22.23;11.32;;;;;;;2.55;100.00;98922.41;4967936;28;20085;-65
2021/11/12 08:00:59;;;;;;;23.05;11.50;;;;;;;2.68;100.00;98936.31;4957155;28;20536;-68
2021/11/12 08:03:46;;;;;;;19.15;10.38;;;;;;;2.69;100.00;98932.84;4970240;28;20093;-67
2021/11/12 08:06:32;;;;;;;23.02;10.30;;;;;;;2.74;100.00;98936.31;4971243;28;20053;-66
2021/11/12 08:09:19;;;;;;;17.95;10.82;;;;;;;2.66;100.00;98919.75;4956986;28;20621;-64
2021/11/12 08:12:07;;;;;;;18.85;11.30;;;;;;;2.72;100.00;98919.72;4958831;28;20189;-66
2021/11/12 08:23:41;;;;;;;22.73;10.10;;;;;;;3.06;100.00;98917.00;4951132;28;20163;-66
2021/11/12 08:26:33;;;;;;;18.55;10.10;;;;;;;3.19;100.00;98913.47;4974128;28;20054;-65
2021/11/12 08:37:56;;;;;;;15.70;9.27;;;;;;;3.40;100.00;98899.38;4961180;28;20066;-64
2021/11/12 08:43:36;;;;;;;15.50;8.73;;;;;;;3.09;100.00;98877.69;4967206;28;20024;-65
2021/11/12 08:49:11;;;;;;;15.85;8.98;;;;;;;3.51;100.00;98872.22;4968877;28;20518;-67
2021/11/12 08:51:58;;;;;;;16.13;9.25;;;;;;;3.45;100.00;98876.66;4959058;28;20057;-67
2021/11/12 08:54:45;;;;;;;16.85;8.90;;;;;;;3.37;100.00;98868.81;4935755;28;20054;-66
2021/11/12 08:57:30;;;;;;;16.92;8.90;;;;;;;3.55;100.00;98865.22;4948632;28;20058;-67
2021/11/12 09:00:15;;;;;;;18.20;10.25;;;;;;;3.43;100.00;98867.91;4952392;28;20522;-68
2021/11/12 09:02:59;;;;;;;19.67;10.20;;;;;;;3.49;100.00;98863.50;4949848;28;20159;-64
2021/11/12 09:05:44;;;;;;;16.45;9.27;;;;;;;3.47;100.00;98865.28;4953556;28;20054;-67
2021/11/12 09:08:29;;;;;;;17.55;9.65;;;;;;;3.71;100.00;98851.09;4963400;28;20178;-66
2021/11/12 09:11:13;;;;;;;17.95;9.50;;;;;;;3.72;100.00;98850.25;4972325;28;20093;-67
2021/11/12 09:14:04;;;;;;;17.05;10.18;;;;;;;3.56;100.00;98846.84;4954121;28;20134;-67
2021/11/12 09:16:49;;;;;;;15.52;8.98;;;;;;;3.62;100.00;98854.69;4953268;28;20073;-67
2021/11/12 09:19:44;;;;;;;18.60;10.02;;;;;;;3.68;100.00;98852.00;4959929;28;20096;-69
2021/11/12 09:22:34;;;;;;;16.77;9.98;;;;;;;3.67;100.00;98852.00;4953099;28;20415;-65
2021/11/12 09:25:22;;;;;;;19.27;9.82;;;;;;;3.65;100.00;98845.94;4952519;28;20593;-68
2021/11/12 09:28:07;;;;;;;19.08;9.95;;;;;;;3.61;100.00;98844.22;4947910;29;20053;-72
2021/11/12 09:30:51;;;;;;;19.45;10.38;;;;;;;3.66;100.00;98838.06;4953215;28;20471;-70
2021/11/12 09:33:37;;;;;;;18.83;10.57;;;;;;;3.81;100.00;98837.91;4952755;28;20581;-67
2021/11/12 09:36:22;;;;;;;18.65;10.45;;;;;;;3.64;100.00;98838.97;4953343;28;20125;-66
2021/11/12 09:39:07;;;;;;;18.45;10.10;;;;;;;3.49;100.00;98839.06;4967226;28;20121;-68
2021/11/12 09:41:52;;;;;;;21.50;10.98;;;;;;;3.50;100.00;98830.31;4949759;28;20054;-67
2021/11/12 09:44:37;;;;;;;23.50;12.77;;;;;;;3.48;100.00;98839.94;4952792;28;20050;-65
2021/11/12 09:47:27;;;;;;;23.30;12.63;;;;;;;3.51;100.00;98825.06;4934789;29;20488;-70
2021/11/12 09:50:17;;;;;;;25.33;13.25;;;;;;;3.49;100.00;98824.19;4960464;28;20530;-73
2021/11/12 09:53:03;;;;;;;25.02;12.32;;;;;;;3.66;100.00;98826.69;4939793;28;20089;-65
2021/11/12 09:55:50;;;;;;;27.73;13.45;;;;;;;3.68;100.00;98817.09;4952789;28;20553;-68
2021/11/12 09:58:37;;;;;;;27.50;12.45;;;;;;;3.63;100.00;98813.59;4946031;28;20056;-71
2021/11/12 10:01:27;;;;;;;24.45;11.30;;;;;;;3.68;100.00;98819.72;4950517;28;20069;-70
2021/11/12 10:04:11;;;;;;;18.63;9.38;;;;;;;3.73;100.00;98815.28;4955255;28;20096;-72
2021/11/12 10:06:58;;;;;;;16.05;9.65;;;;;;;3.81;100.00;98816.09;4967075;28;20054;-68
2021/11/12 10:09:48;;;;;;;16.25;8.55;;;;;;;3.88;100.00;98807.28;4949170;28;20061;-70
2021/11/12 10:12:40;;;;;;;17.30;8.75;;;;;;;3.97;100.00;98802.84;4936305;28;20057;-67
2021/11/12 10:15:31;;;;;;;17.50;9.02;;;;;;;4.05;100.00;98822.00;4972521;28;20171;-68
2021/11/12 10:18:18;;;;;;;16.00;8.00;;;;;;;4.03;100.00;98801.88;4958889;28;20137;-66
2021/11/12 10:21:03;;;;;;;18.98;8.60;;;;;;;4.03;100.00;98805.38;4947669;28;20057;-65
2021/11/12 10:23:48;;;;;;;16.33;8.15;;;;;;;4.15;100.00;98810.50;4961330;28;20061;-71
2021/11/12 10:26:36;;;;;;;14.85;8.65;;;;;;;4.14;100.00;98797.41;4965123;28;20053;-67
2021/11/12 10:29:40;;;;;;;14.82;7.93;;;;;;;4.18;100.00;98807.88;4947692;28;20634;-67
2021/11/12 10:32:32;;;;;;;12.40;7.47;;;;;;;4.16;100.00;98811.41;4963784;28;20635;-68
2021/11/12 10:35:22;;;;;;;14.75;9.10;;;;;;;4.23;100.00;98813.03;4961433;28;20534;-66
2021/11/12 10:38:11;;;;;;;16.55;8.60;;;;;;;4.27;100.00;98825.25;4971352;28;20052;-72
2021/11/12 10:40:55;;;;;;;17.90;8.75;;;;;;;4.22;100.00;98816.56;4971297;28;20053;-67
2021/11/12 10:43:40;;;;;;;14.65;8.65;;;;;;;4.29;100.00;98828.75;4961294;28;20059;-66
2021/11/12 10:46:37;;;;;;;18.10;9.43;;;;;;;4.38;100.00;98813.78;4970048;28;20060;-65
2021/11/12 10:49:34;;;;;;;16.35;8.82;;;;;;;4.29;100.00;98813.88;4972498;28;20134;-69
2021/11/12 10:52:22;;;;;;;16.52;8.52;;;;;;;4.37;100.00;98812.03;4975344;28;20470;-66
2021/11/12 10:55:12;;;;;;;16.33;9.63;;;;;;;4.46;100.00;98824.19;4971223;28;20077;-68
2021/11/12 10:58:06;;;;;;;15.30;8.65;;;;;;;4.48;100.00;98796.19;4944795;28;20049;-69
2021/11/12 11:00:51;;;;;;;14.50;8.63;;;;;;;4.44;100.00;98820.72;4943959;28;20073;-64
2021/11/12 11:03:36;;;;;;;16.88;8.75;;;;;;;4.52;100.00;98805.75;4959872;28;20058;-69
2021/11/12 11:06:23;;;;;;;12.45;7.13;;;;;;;4.55;100.00;98809.19;4969396;28;20536;-69
2021/11/12 11:09:09;;;;;;;12.10;7.60;;;;;;;4.57;100.00;98812.69;4955634;28;20058;-66
2021/11/12 11:11:53;;;;;;;12.32;7.90;;;;;;;4.64;100.00;98814.31;4934460;28;20527;-70
2021/11/12 11:14:38;;;;;;;12.88;7.20;;;;;;;4.74;100.00;98800.22;4967036;28;20218;-64
2021/11/12 11:17:29;;;;;;;10.25;6.28;;;;;;;4.84;100.00;98820.22;4950115;28;20566;-64
2021/11/12 11:20:23;;;;;;;10.93;6.78;;;;;;;4.94;100.00;98815.72;4955639;28;20054;-65
2021/11/12 11:23:08;;;;;;;11.57;6.32;;;;;;;4.89;100.00;98809.66;4967230;28;20077;-66
2021/11/12 11:26:02;;;;;;;11.32;5.88;;;;;;;4.99;100.00;98813.91;4950138;28;20085;-67
2021/11/12 11:28:53;;;;;;;11.20;5.57;;;;;;;5.07;100.00;98809.44;4967765;28;20078;-65
2021/11/12 11:31:39;;;;;;;12.30;5.95;;;;;;;5.17;100.00;98812.81;4975345;28;20061;-64
2021/11/12 11:34:25;;;;;;;11.35;5.43;;;;;;;5.23;100.00;98824.09;4929222;28;20054;-66
2021/11/12 11:37:10;;;;;;;8.82;4.93;;;;;;;5.33;100.00;98816.94;4944579;28;20090;-67
2021/11/12 11:39:57;;;;;;;10.60;5.28;;;;;;;5.50;100.00;98826.28;4974946;28;20745;-64
2021/11/12 11:42:44;;;;;;;11.20;5.07;;;;;;;5.49;100.00;98835.06;4961239;28;20076;-72
2021/11/12 11:45:28;;;;;;;6.57;4.40;;;;;;;5.50;100.00;98818.41;4972261;28;20185;-65
2021/11/12 11:48:18;;;;;;;5.80;4.03;;;;;;;5.62;100.00;98836.63;4974564;28;20109;-69
2021/11/12 11:51:04;;;;;;;6.50;4.25;;;;;;;5.71;100.00;98833.00;4970400;28;20437;-65
2021/11/12 11:53:50;;;;;;;8.48;4.22;;;;;;;5.76;100.00;98832.03;4972301;28;20077;-64
2021/11/12 11:56:37;;;;;;;8.23;4.90;;;;;;;5.86;100.00;98828.41;4945070;28;20050;-65
2021/11/12 11:59:24;;;;;;;6.20;3.63;;;;;;;5.81;100.00;98822.34;4972651;28;20843;-64
2021/11/12 12:02:24;;;;;;;6.75;3.50;;;;;;;5.96;100.00;98823.84;4954071;28;20073;-74
2021/11/12 12:05:08;;;;;;;5.00;3.28;;;;;;;5.96;100.00;98835.25;4966786;28;20069;-66
2021/11/12 12:07:56;;;;;;;8.30;3.38;;;;;;;6.03;100.00;98831.63;4975449;28;20578;-65
2021/11/12 12:10:41;;;;;;;7.03;3.35;;;;;;;6.06;100.00;98823.69;4959563;28;20153;-74
2021/11/12 12:13:27;;;;;;;5.00;3.42;;;;;;;6.06;100.00;98844.72;4952247;28;20057;-63
2021/11/12 12:16:22;;;;;;;5.97;3.00;;;;;;;6.09;100.00;98820.13;4976526;28;20061;-65
2021/11/12 12:19:53;;;;;;;6.22;3.38;;;;;;;6.16;100.00;98840.16;4974707;28;20153;-68
2021/11/12 12:35:39;;;;;;;4.78;2.72;;;;;;;6.16;100.00;98858.56;4979903;28;20011;-67
2021/11/12 12:41:57;;;;;;;6.85;2.55;;;;;;;6.14;100.00;98853.38;4961517;28;20109;-66
2021/11/12 13:26:00;;;;;;;4.68;2.72;;;;;;;6.22;100.00;98905.84;4959255;28;20411;-66
2021/11/12 13:28:47;;;;;;;5.40;3.35;;;;;;;6.23;100.00;98897.06;4952707;28;20050;-73
2021/11/12 13:31:32;;;;;;;6.32;2.90;;;;;;;6.32;100.00;98894.25;4959569;28;20455;-67
2021/11/12 13:34:17;;;;;;;5.68;2.72;;;;;;;6.30;100.00;98912.75;4959834;28;20059;-66
2021/11/12 13:37:02;;;;;;;4.95;3.05;;;;;;;6.36;100.00;98915.25;4962009;28;20057;-67
2021/11/12 13:40:12;;;;;;;6.28;3.00;;;;;;;6.48;100.00;98909.78;4968651;28;20105;-64
2021/11/12 13:42:58;;;;;;;6.95;2.92;;;;;;;6.43;100.00;98910.75;4935945;29;20097;-65
2021/11/12 13:45:43;;;;;;;8.25;3.55;;;;;;;6.41;100.00;98917.81;4962447;28;20101;-70
2021/11/12 13:48:29;;;;;;;7.45;2.53;;;;;;;6.41;100.00;98897.59;4934559;29;20073;-64
2021/11/12 13:51:17;;;;;;;4.50;2.33;;;;;;;6.38;100.00;98902.94;4963851;28;20534;-66
2021/11/12 13:54:05;;;;;;;3.70;2.20;;;;;;;6.47;100.00;98907.16;4930021;28;20823;-68
2021/11/12 13:56:50;;;;;;;4.35;2.15;;;;;;;6.40;100.00;98909.03;4968168;28;20721;-71
2021/11/12 13:59:35;;;;;;;2.55;1.75;;;;;;;6.42;100.00;98917.81;4962360;28;20066;-69
2021/11/12 14:02:22;;;;;;;7.43;1.55;;;;;;;6.49;100.00;98902.75;4954022;28;20534;-66
2021/11/12 14:05:12;;;;;;;3.55;1.40;;;;;;;6.53;100.00;98921.09;4950491;28;20442;-66
2021/11/12 14:08:10;;;;;;;3.70;1.70;;;;;;;6.57;100.00;98921.94;4952628;28;20073;-65
2021/11/12 14:10:55;;;;;;;4.00;1.30;;;;;;;6.46;100.00;98921.22;4972273;28;20044;-66
2021/11/12 14:13:40;;;;;;;3.92;1.48;;;;;;;6.36;100.00;98909.09;4957643;28;20136;-71
2021/11/12 14:16:36;;;;;;;1.80;1.10;;;;;;;6.49;100.00;98935.22;4961638;28;20054;-66
2021/11/12 14:22:36;;;;;;;2.97;0.93;;;;;;;6.41;100.00;98920.44;4972256;28;20813;-67
2021/11/12 14:28:18;;;;;;;1.92;1.05;;;;;;;6.46;100.00;98940.56;4942131;28;20049;-65
2021/11/12 14:31:26;;;;;;;2.63;1.08;;;;;;;6.34;100.00;98926.72;4968884;28;20415;-66
2021/11/12 14:37:32;;;;;;;3.03;1.13;;;;;;;6.34;100.00;98968.84;4973806;28;20182;-66
2021/11/12 14:40:10;;;;;;;4.35;0.80;;;;;;;6.29;100.00;98953.09;4975327;28;20100;-68
2021/11/12 14:52:16;;;;;;;2.67;0.90;;;;;;;6.34;100.00;98979.38;4888595;29;20046;-72
2021/11/12 14:55:09;;;;;;;5.00;0.70;;;;;;;6.18;100.00;98972.59;4903399;29;20052;-66
2021/11/12 14:57:55;;;;;;;3.72;1.05;;;;;;;6.26;100.00;98992.66;4889907;29;20050;-69
2021/11/12 15:00:40;;;;;;;1.70;0.93;;;;;;;6.26;100.00;98983.88;4903210;29;20120;-69
2021/11/12 15:03:25;;;;;;;1.50;0.70;;;;;;;6.23;100.00;98989.19;4904575;29;20115;-65
2021/11/12 15:06:13;;;;;;;2.75;0.88;;;;;;;6.25;100.00;98985.63;4898903;29;20103;-66
2021/11/12 15:11:51;;;;;;;4.07;1.02;;;;;;;6.34;100.00;99001.31;4904675;29;20104;-69
2021/11/12 15:14:42;;;;;;;2.03;1.30;;;;;;;6.30;100.00;98975.91;4897274;29;20066;-73
2021/11/12 15:17:29;;;;;;;2.22;1.10;;;;;;;6.28;100.00;98982.94;4941078;28;20116;-64
2021/11/12 15:20:14;;;;;;;6.15;0.90;;;;;;;6.25;100.00;98990.88;4957949;28;20348;-72
2021/11/12 15:26:23;;;;;;;2.38;0.70;;;;;;;6.33;100.00;99001.31;4955951;28;20109;-67
2021/11/12 15:29:26;;;;;;;2.72;0.80;;;;;;;6.25;100.00;99009.31;4970893;28;20133;-67
2021/11/12 15:32:20;;;;;;;4.15;0.90;;;;;;;6.25;100.00;99024.25;4959953;28;20085;-65
2021/11/12 15:35:18;;;;;;;2.47;0.80;;;;;;;6.23;100.00;99003.22;4959360;28;20093;-67
2021/11/12 15:38:18;;;;;;;3.00;0.82;;;;;;;6.23;100.00;99011.13;4959088;28;20065;-68
2021/11/12 15:41:17;;;;;;;5.25;0.93;;;;;;;6.30;100.00;99025.94;4958138;28;20526;-65
2021/11/12 15:44:15;;;;;;;3.15;0.82;;;;;;;6.28;100.00;99026.81;4960456;28;20085;-67
2021/11/12 15:47:22;;;;;;;2.47;0.90;;;;;;;6.33;100.00;99040.81;4965185;28;20053;-66
2021/11/12 15:50:13;;;;;;;3.63;0.80;;;;;;;6.28;100.00;99035.59;4964119;28;20260;-66
2021/11/12 15:56:40;;;;;;;1.15;0.80;;;;;;;6.25;100.00;99037.41;4899031;29;20050;-70
2021/11/12 16:25:26;;;;;;;3.63;0.90;;;;;;;6.32;100.00;99060.09;4915249;29;20058;-66
2021/11/12 16:28:18;;;;;;;2.28;0.75;;;;;;;6.36;100.00;99070.59;4917013;29;20087;-66
2021/11/12 16:31:05;;;;;;;3.20;0.77;;;;;;;6.36;100.00;99086.38;4933709;28;20061;-68
2021/11/12 16:33:51;;;;;;;2.08;0.70;;;;;;;6.34;100.00;99077.66;4958954;28;20070;-67
2021/11/12 16:36:42;;;;;;;2.42;0.82;;;;;;;6.37;100.00;99084.63;4962030;28;20053;-67
2021/11/12 16:52:30;;;;;;;2.35;0.75;;;;;;;6.30;100.00;99101.41;4922302;29;20096;-68
2021/11/12 16:54:53;;;;;;;2.85;1.13;;;;;;;6.36;100.00;99103.91;4896624;29;20157;-72
2021/11/12 16:57:56;;;;;;;2.35;0.90;;;;;;;6.29;100.00;99099.66;4923973;29;20047;-67
2021/11/12 17:15:39;;;;;;;1.85;0.80;;;;;;;6.23;100.00;99113.78;4922295;29;20074;-66
2021/11/12 17:48:40;;;;;;;2.72;0.90;;;;;;;6.12;100.00;99170.94;4970644;28;20105;-70
2021/11/12 18:04:03;;;;;;;2.00;1.00;;;;;;;6.01;100.00;99141.22;4960034;28;20065;-66
2021/11/12 21:46:23;;;;;;;1.92;0.90;;;;;;;6.13;100.00;99420.06;4972146;28;20411;-67
2021/11/12 21:48:44;;;;;;;2.55;1.10;;;;;;;6.24;100.00;99428.75;4975237;28;20061;-67
2021/11/12 21:51:41;;;;;;;1.75;0.90;;;;;;;6.18;100.00;99428.81;4943254;28;20142;-67
2021/11/12 21:54:26;;;;;;;2.95;0.93;;;;;;;6.28;100.00;99434.84;4973155;28;20112;-70
2021/11/12 21:57:11;;;;;;;2.17;0.85;;;;;;;6.27;100.00;99427.84;4961057;28;20061;-67
2021/11/12 21:59:56;;;;;;;1.95;0.98;;;;;;;6.27;100.00;99434.00;4969867;28;20053;-68
2021/11/12 22:02:41;;;;;;;5.32;1.00;;;;;;;6.26;100.00;99439.28;4974511;28;20189;-66
2021/11/12 22:05:27;;;;;;;1.52;1.00;;;;;;;6.28;100.00;99448.91;4964062;28;20054;-66
2021/11/12 22:08:11;;;;;;;2.42;0.95;;;;;;;6.42;100.00;99454.06;4975306;28;20044;-62
2021/11/12 22:10:59;;;;;;;1.45;0.95;;;;;;;6.30;100.00;99460.31;4953810;28;20486;-65
2021/11/12 22:13:44;;;;;;;1.48;1.05;;;;;;;6.26;100.00;99448.06;4960430;28;20049;-67
2021/11/12 22:16:34;;;;;;;2.10;0.90;;;;;;;6.30;100.00;99457.69;4948460;29;20062;-69
2021/11/12 22:19:20;;;;;;;2.00;1.15;;;;;;;6.41;100.00;99461.06;4955993;28;20142;-66
2021/11/12 22:22:05;;;;;;;5.63;1.00;;;;;;;6.30;100.00;99457.69;4965716;28;20127;-65
2021/11/12 22:24:49;;;;;;;2.80;1.00;;;;;;;6.26;100.00;99463.84;4939949;28;20083;-65
2021/11/12 22:27:34;;;;;;;2.95;0.80;;;;;;;6.30;100.00;99469.97;4967344;28;20466;-67
2021/11/12 22:30:19;;;;;;;0.65;0.65;;;;;;;6.25;100.00;99483.13;4958998;28;20436;-64
2021/11/12 22:33:05;;;;;;;2.92;1.00;;;;;;;6.41;100.00;99481.28;4947651;29;20058;-67
2021/11/12 22:35:50;;;;;;;0.93;0.65;;;;;;;6.42;100.00;99486.53;4959461;28;20073;-66
2021/11/12 22:38:37;;;;;;;1.52;0.80;;;;;;;6.48;100.00;99494.38;4965945;28;20053;-65
2021/11/12 22:41:22;;;;;;;2.08;0.70;;;;;;;6.37;100.00;99488.31;4933424;28;20058;-68
2021/11/12 22:44:09;;;;;;;1.70;0.90;;;;;;;6.36;100.00;99497.09;4947264;28;20069;-68
2021/11/12 22:46:56;;;;;;;1.17;0.80;;;;;;;6.39;100.00;99505.00;4933518;28;20110;-66
2021/11/12 22:49:42;;;;;;;0.85;0.70;;;;;;;6.57;100.00;99496.06;4946753;28;20463;-66
2021/11/12 22:52:27;;;;;;;0.90;0.70;;;;;;;6.52;100.00;99511.91;4961507;28;20873;-67
2021/11/12 22:55:12;;;;;;;2.13;0.90;;;;;;;6.44;100.00;99523.41;4958907;28;20057;-65